Indianapolis, Indiana
Traffic Map
Current Weather Conditions
Indianapolis, Indiana
Broken Clouds
Broken Clouds
65°
Feels Like: 65°
Wind Chill: 65° Ceiling: 7000
Heat Index: 65° Visibility: 10mi
Dew Point: 51° Wind: 8mph
Humidity: 61% Direction: 30° (NNE)
Pressure: 30.08in Gusts: 0mph
Raw Report DataKIND 291954Z 03007KT 10SM SCT033 BKN070 18/11 A3008 RMK AO2 SLP183 T01830106
Traffic Incident Summary
Active as of:
Severity:
Category:
InformationThere was an issue retrieving the traffic information for this location. Please try a different location or try again shortly.
Advertisements
Track Severe Weather on mobile